sensor_id;sensor_type;location;lat;lon;timestamp;temperature;humidity
13346;DHT22;6742;48.036;15.780;2022-10-13T00:00:03;11.60;99.90
13346;DHT22;6742;48.036;15.780;2022-10-13T00:02:33;11.60;99.90
13346;DHT22;6742;48.036;15.780;2022-10-13T00:05:00;11.60;99.90
13346;DHT22;6742;48.036;15.780;2022-10-13T00:07:27;11.60;99.90
13346;DHT22;6742;48.036;15.780;2022-10-13T00:09:55;11.60;99.90
13346;DHT22;6742;48.036;15.780;2022-10-13T00:12:22;11.60;99.90
13346;DHT22;6742;48.036;15.780;2022-10-13T00:14:49;11.50;99.90
13346;DHT22;6742;48.036;15.780;2022-10-13T00:17:18;11.50;99.90
13346;DHT22;6742;48.036;15.780;2022-10-13T00:19:45;11.50;99.90
13346;DHT22;6742;48.036;15.780;2022-10-13T00:22:12;11.50;99.90
13346;DHT22;6742;48.036;15.780;2022-10-13T00:24:39;11.50;99.90
13346;DHT22;6742;48.036;15.780;2022-10-13T00:27:07;11.40;99.90
13346;DHT22;6742;48.036;15.780;2022-10-13T00:29:34;11.40;99.90
13346;DHT22;6742;48.036;15.780;2022-10-13T00:32:01;11.40;99.90
13346;DHT22;6742;48.036;15.780;2022-10-13T00:34:28;11.40;99.90
13346;DHT22;6742;48.036;15.780;2022-10-13T00:36:55;11.40;99.90
13346;DHT22;6742;48.036;15.780;2022-10-13T00:39:21;11.30;99.90
13346;DHT22;6742;48.036;15.780;2022-10-13T00:41:48;11.30;99.90
13346;DHT22;6742;48.036;15.780;2022-10-13T00:47:21;11.30;99.90
13346;DHT22;6742;48.036;15.780;2022-10-13T00:49:49;11.30;99.90
13346;DHT22;6742;48.036;15.780;2022-10-13T00:52:17;11.30;99.90
13346;DHT22;6742;48.036;15.780;2022-10-13T00:54:46;11.30;99.90
13346;DHT22;6742;48.036;15.780;2022-10-13T00:57:14;11.20;99.90
13346;DHT22;6742;48.036;15.780;2022-10-13T00:59:46;11.20;99.90
13346;DHT22;6742;48.036;15.780;2022-10-13T01:02:13;11.20;99.90
13346;DHT22;6742;48.036;15.780;2022-10-13T01:04:44;11.20;99.90
13346;DHT22;6742;48.036;15.780;2022-10-13T01:07:14;11.20;99.90
13346;DHT22;6742;48.036;15.780;2022-10-13T01:09:41;11.20;99.90
13346;DHT22;6742;48.036;15.780;2022-10-13T01:12:21;11.20;99.90
13346;DHT22;6742;48.036;15.780;2022-10-13T01:14:55;11.20;99.90
13346;DHT22;6742;48.036;15.780;2022-10-13T01:17:32;11.20;99.90
13346;DHT22;6742;48.036;15.780;2022-10-13T01:20:31;11.10;99.90
13346;DHT22;6742;48.036;15.780;2022-10-13T01:23:17;11.20;99.90
13346;DHT22;6742;48.036;15.780;2022-10-13T01:28:52;11.10;99.90
13346;DHT22;6742;48.036;15.780;2022-10-13T01:31:27;11.10;99.90
13346;DHT22;6742;48.036;15.780;2022-10-13T01:33:59;11.10;99.90
13346;DHT22;6742;48.036;15.780;2022-10-13T01:36:34;11.10;99.90
13346;DHT22;6742;48.036;15.780;2022-10-13T01:39:08;11.10;99.90
13346;DHT22;6742;48.036;15.780;2022-10-13T01:41:41;11.10;99.90
13346;DHT22;6742;48.036;15.780;2022-10-13T01:44:15;11.10;99.90
13346;DHT22;6742;48.036;15.780;2022-10-13T01:46:49;11.10;99.90
13346;DHT22;6742;48.036;15.780;2022-10-13T01:49:21;11.10;99.90
13346;DHT22;6742;48.036;15.780;2022-10-13T01:51:52;11.00;99.90
13346;DHT22;6742;48.036;15.780;2022-10-13T01:54:20;11.00;99.90
13346;DHT22;6742;48.036;15.780;2022-10-13T01:56:51;11.00;99.90
13346;DHT22;6742;48.036;15.780;2022-10-13T01:59:19;11.00;99.90
13346;DHT22;6742;48.036;15.780;2022-10-13T02:01:59;11.00;99.90
13346;DHT22;6742;48.036;15.780;2022-10-13T02:04:41;11.00;99.90
13346;DHT22;6742;48.036;15.780;2022-10-13T02:07:18;11.00;99.90
13346;DHT22;6742;48.036;15.780;2022-10-13T02:09:53;11.00;99.90
13346;DHT22;6742;48.036;15.780;2022-10-13T02:12:26;11.00;99.90
13346;DHT22;6742;48.036;15.780;2022-10-13T02:14:56;11.00;99.90
13346;DHT22;6742;48.036;15.780;2022-10-13T02:17:26;11.00;99.90
13346;DHT22;6742;48.036;15.780;2022-10-13T02:19:54;11.00;99.90
13346;DHT22;6742;48.036;15.780;2022-10-13T02:22:24;11.00;99.90
13346;DHT22;6742;48.036;15.780;2022-10-13T02:24:53;11.00;99.90
13346;DHT22;6742;48.036;15.780;2022-10-13T02:27:21;11.00;99.90
13346;DHT22;6742;48.036;15.780;2022-10-13T02:29:50;11.00;99.90
13346;DHT22;6742;48.036;15.780;2022-10-13T02:32:17;11.00;99.90
13346;DHT22;6742;48.036;15.780;2022-10-13T02:34:45;11.00;99.90
13346;DHT22;6742;48.036;15.780;2022-10-13T02:37:12;11.00;99.90
13346;DHT22;6742;48.036;15.780;2022-10-13T02:39:39;11.00;99.90
13346;DHT22;6742;48.036;15.780;2022-10-13T02:42:09;11.00;99.90
13346;DHT22;6742;48.036;15.780;2022-10-13T02:44:36;11.00;99.90
13346;DHT22;6742;48.036;15.780;2022-10-13T02:47:04;11.00;99.90
13346;DHT22;6742;48.036;15.780;2022-10-13T02:49:31;11.00;99.90
13346;DHT22;6742;48.036;15.780;2022-10-13T02:51:59;11.00;99.90
13346;DHT22;6742;48.036;15.780;2022-10-13T02:54:26;11.00;99.90
13346;DHT22;6742;48.036;15.780;2022-10-13T02:56:53;11.00;99.90
13346;DHT22;6742;48.036;15.780;2022-10-13T02:59:20;11.00;99.90
13346;DHT22;6742;48.036;15.780;2022-10-13T03:01:47;11.00;99.90
13346;DHT22;6742;48.036;15.780;2022-10-13T03:04:14;11.00;99.90
13346;DHT22;6742;48.036;15.780;2022-10-13T03:06:41;11.00;99.90
13346;DHT22;6742;48.036;15.780;2022-10-13T03:09:09;11.00;99.90
13346;DHT22;6742;48.036;15.780;2022-10-13T03:11:36;11.00;99.90
13346;DHT22;6742;48.036;15.780;2022-10-13T03:14:03;11.00;99.90
13346;DHT22;6742;48.036;15.780;2022-10-13T03:16:30;11.00;99.90
13346;DHT22;6742;48.036;15.780;2022-10-13T03:18:57;11.00;99.90
13346;DHT22;6742;48.036;15.780;2022-10-13T03:21:24;11.00;99.90
13346;DHT22;6742;48.036;15.780;2022-10-13T03:23:50;11.00;99.90
13346;DHT22;6742;48.036;15.780;2022-10-13T03:26:19;11.00;99.90
13346;DHT22;6742;48.036;15.780;2022-10-13T03:28:48;11.00;99.90
13346;DHT22;6742;48.036;15.780;2022-10-13T03:31:15;11.00;99.90
13346;DHT22;6742;48.036;15.780;2022-10-13T03:33:43;11.00;99.90
13346;DHT22;6742;48.036;15.780;2022-10-13T03:36:11;11.10;99.90
13346;DHT22;6742;48.036;15.780;2022-10-13T03:38:41;11.10;99.90
13346;DHT22;6742;48.036;15.780;2022-10-13T03:41:10;11.00;99.90
13346;DHT22;6742;48.036;15.780;2022-10-13T03:43:41;11.10;99.90
13346;DHT22;6742;48.036;15.780;2022-10-13T03:46:10;11.10;99.90
13346;DHT22;6742;48.036;15.780;2022-10-13T03:48:37;11.10;99.90
13346;DHT22;6742;48.036;15.780;2022-10-13T03:51:05;11.10;99.90
13346;DHT22;6742;48.036;15.780;2022-10-13T03:53:33;11.10;99.90
13346;DHT22;6742;48.036;15.780;2022-10-13T03:56:01;11.10;99.90
13346;DHT22;6742;48.036;15.780;2022-10-13T03:58:28;11.00;99.90
13346;DHT22;6742;48.036;15.780;2022-10-13T04:01:00;11.00;99.90
13346;DHT22;6742;48.036;15.780;2022-10-13T04:03:27;11.10;99.90
13346;DHT22;6742;48.036;15.780;2022-10-13T04:05:54;11.10;99.90
13346;DHT22;6742;48.036;15.780;2022-10-13T04:08:25;11.10;99.90
13346;DHT22;6742;48.036;15.780;2022-10-13T04:10:57;11.10;99.90
13346;DHT22;6742;48.036;15.780;2022-10-13T04:13:25;11.10;99.90
13346;DHT22;6742;48.036;15.780;2022-10-13T04:15:51;11.10;99.90
13346;DHT22;6742;48.036;15.780;2022-10-13T04:18:20;11.10;99.90
13346;DHT22;6742;48.036;15.780;2022-10-13T04:20:47;11.10;99.90
13346;DHT22;6742;48.036;15.780;2022-10-13T04:23:14;11.10;99.90
13346;DHT22;6742;48.036;15.780;2022-10-13T04:25:41;11.10;99.90
13346;DHT22;6742;48.036;15.780;2022-10-13T04:28:11;11.10;99.90
13346;DHT22;6742;48.036;15.780;2022-10-13T04:30:38;11.10;99.90
13346;DHT22;6742;48.036;15.780;2022-10-13T04:33:05;11.10;99.90
13346;DHT22;6742;48.036;15.780;2022-10-13T04:35:37;11.10;99.90
13346;DHT22;6742;48.036;15.780;2022-10-13T04:38:04;11.00;99.90
13346;DHT22;6742;48.036;15.780;2022-10-13T04:40:32;11.00;99.90
13346;DHT22;6742;48.036;15.780;2022-10-13T04:42:59;11.00;99.90
13346;DHT22;6742;48.036;15.780;2022-10-13T04:45:26;11.00;99.90
13346;DHT22;6742;48.036;15.780;2022-10-13T04:47:53;11.00;99.90
13346;DHT22;6742;48.036;15.780;2022-10-13T04:50:20;11.00;99.90
13346;DHT22;6742;48.036;15.780;2022-10-13T04:52:48;11.00;99.90
13346;DHT22;6742;48.036;15.780;2022-10-13T04:55:15;11.00;99.90
13346;DHT22;6742;48.036;15.780;2022-10-13T04:57:42;11.00;99.90
13346;DHT22;6742;48.036;15.780;2022-10-13T05:00:10;11.00;99.90
13346;DHT22;6742;48.036;15.780;2022-10-13T05:02:37;11.00;99.90
13346;DHT22;6742;48.036;15.780;2022-10-13T05:05:05;11.00;99.90
13346;DHT22;6742;48.036;15.780;2022-10-13T05:07:32;11.10;99.90
13346;DHT22;6742;48.036;15.780;2022-10-13T05:10:01;11.00;99.90
13346;DHT22;6742;48.036;15.780;2022-10-13T05:12:29;11.10;99.90
13346;DHT22;6742;48.036;15.780;2022-10-13T05:14:56;11.00;99.90
13346;DHT22;6742;48.036;15.780;2022-10-13T05:17:23;11.10;99.90
13346;DHT22;6742;48.036;15.780;2022-10-13T05:19:50;11.00;99.90
13346;DHT22;6742;48.036;15.780;2022-10-13T05:22:17;11.00;99.90
13346;DHT22;6742;48.036;15.780;2022-10-13T05:24:44;11.00;99.90
13346;DHT22;6742;48.036;15.780;2022-10-13T05:27:15;11.10;99.90
13346;DHT22;6742;48.036;15.780;2022-10-13T05:29:42;11.10;99.90
13346;DHT22;6742;48.036;15.780;2022-10-13T05:32:09;11.00;99.90
13346;DHT22;6742;48.036;15.780;2022-10-13T05:34:36;11.00;99.90
13346;DHT22;6742;48.036;15.780;2022-10-13T05:37:03;11.00;99.90
13346;DHT22;6742;48.036;15.780;2022-10-13T05:39:30;11.10;99.90
13346;DHT22;6742;48.036;15.780;2022-10-13T05:41:57;11.10;99.90
13346;DHT22;6742;48.036;15.780;2022-10-13T05:44:25;11.10;99.90
13346;DHT22;6742;48.036;15.780;2022-10-13T05:46:52;11.10;99.90
13346;DHT22;6742;48.036;15.780;2022-10-13T05:49:19;11.10;99.90
13346;DHT22;6742;48.036;15.780;2022-10-13T05:51:49;11.20;99.90
13346;DHT22;6742;48.036;15.780;2022-10-13T05:54:19;11.20;99.90
13346;DHT22;6742;48.036;15.780;2022-10-13T05:56:52;11.20;99.90
13346;DHT22;6742;48.036;15.780;2022-10-13T05:59:21;11.20;99.90
13346;DHT22;6742;48.036;15.780;2022-10-13T06:01:50;11.20;99.90
13346;DHT22;6742;48.036;15.780;2022-10-13T06:04:21;11.20;99.90
13346;DHT22;6742;48.036;15.780;2022-10-13T06:06:49;11.10;99.90
13346;DHT22;6742;48.036;15.780;2022-10-13T06:09:19;11.10;99.90
13346;DHT22;6742;48.036;15.780;2022-10-13T06:11:46;11.10;99.90
13346;DHT22;6742;48.036;15.780;2022-10-13T06:14:13;11.10;99.90
13346;DHT22;6742;48.036;15.780;2022-10-13T06:16:40;11.10;99.90
13346;DHT22;6742;48.036;15.780;2022-10-13T06:19:08;11.10;99.90
13346;DHT22;6742;48.036;15.780;2022-10-13T06:21:38;11.10;99.90
13346;DHT22;6742;48.036;15.780;2022-10-13T06:24:05;11.20;99.90
13346;DHT22;6742;48.036;15.780;2022-10-13T06:26:32;11.10;99.90
13346;DHT22;6742;48.036;15.780;2022-10-13T06:28:59;11.10;99.90
13346;DHT22;6742;48.036;15.780;2022-10-13T06:31:26;11.20;99.90
13346;DHT22;6742;48.036;15.780;2022-10-13T06:33:53;11.20;99.90
13346;DHT22;6742;48.036;15.780;2022-10-13T06:36:22;11.10;99.90
13346;DHT22;6742;48.036;15.780;2022-10-13T06:38:48;11.20;99.90
13346;DHT22;6742;48.036;15.780;2022-10-13T06:41:16;11.20;99.90
13346;DHT22;6742;48.036;15.780;2022-10-13T06:43:43;11.20;99.90
13346;DHT22;6742;48.036;15.780;2022-10-13T06:46:10;11.20;99.90
13346;DHT22;6742;48.036;15.780;2022-10-13T06:48:37;11.20;99.90
13346;DHT22;6742;48.036;15.780;2022-10-13T06:51:09;11.20;99.90
13346;DHT22;6742;48.036;15.780;2022-10-13T06:53:38;11.30;99.90
13346;DHT22;6742;48.036;15.780;2022-10-13T06:56:11;11.30;99.90
13346;DHT22;6742;48.036;15.780;2022-10-13T06:58:38;11.30;99.90
13346;DHT22;6742;48.036;15.780;2022-10-13T07:01:06;11.30;99.90
13346;DHT22;6742;48.036;15.780;2022-10-13T07:03:33;11.20;99.90
13346;DHT22;6742;48.036;15.780;2022-10-13T07:06:01;11.30;99.90
13346;DHT22;6742;48.036;15.780;2022-10-13T07:08:28;11.30;99.90
13346;DHT22;6742;48.036;15.780;2022-10-13T07:10:57;11.40;99.90
13346;DHT22;6742;48.036;15.780;2022-10-13T07:13:24;11.60;99.90
13346;DHT22;6742;48.036;15.780;2022-10-13T07:15:54;11.70;99.90
13346;DHT22;6742;48.036;15.780;2022-10-13T07:18:21;11.90;99.90
13346;DHT22;6742;48.036;15.780;2022-10-13T07:20:48;12.00;99.90
13346;DHT22;6742;48.036;15.780;2022-10-13T07:23:18;12.10;99.90
13346;DHT22;6742;48.036;15.780;2022-10-13T07:25:45;12.10;99.90
13346;DHT22;6742;48.036;15.780;2022-10-13T07:28:13;12.20;99.90
13346;DHT22;6742;48.036;15.780;2022-10-13T07:30:40;12.20;99.90
13346;DHT22;6742;48.036;15.780;2022-10-13T07:33:07;12.20;99.90
13346;DHT22;6742;48.036;15.780;2022-10-13T07:35:37;12.30;99.90
13346;DHT22;6742;48.036;15.780;2022-10-13T07:38:06;12.30;99.90
13346;DHT22;6742;48.036;15.780;2022-10-13T07:40:33;12.30;99.90
13346;DHT22;6742;48.036;15.780;2022-10-13T07:43:00;12.40;99.90
13346;DHT22;6742;48.036;15.780;2022-10-13T07:45:28;12.50;99.90
13346;DHT22;6742;48.036;15.780;2022-10-13T07:47:55;12.50;99.90
13346;DHT22;6742;48.036;15.780;2022-10-13T07:50:22;12.50;99.90
13346;DHT22;6742;48.036;15.780;2022-10-13T07:52:49;12.40;99.90
13346;DHT22;6742;48.036;15.780;2022-10-13T07:55:16;12.30;99.90
13346;DHT22;6742;48.036;15.780;2022-10-13T07:57:43;12.20;99.90
13346;DHT22;6742;48.036;15.780;2022-10-13T08:00:10;12.20;99.90
13346;DHT22;6742;48.036;15.780;2022-10-13T08:02:41;12.10;99.90
13346;DHT22;6742;48.036;15.780;2022-10-13T08:05:10;12.00;99.90
13346;DHT22;6742;48.036;15.780;2022-10-13T08:07:37;11.90;99.90
13346;DHT22;6742;48.036;15.780;2022-10-13T08:10:05;12.00;99.90
13346;DHT22;6742;48.036;15.780;2022-10-13T08:12:34;12.00;99.90
13346;DHT22;6742;48.036;15.780;2022-10-13T08:15:01;12.00;99.90
13346;DHT22;6742;48.036;15.780;2022-10-13T08:17:28;11.90;99.90
13346;DHT22;6742;48.036;15.780;2022-10-13T08:19:56;11.90;99.90
13346;DHT22;6742;48.036;15.780;2022-10-13T08:22:23;12.00;99.90
13346;DHT22;6742;48.036;15.780;2022-10-13T08:24:51;12.00;99.90
13346;DHT22;6742;48.036;15.780;2022-10-13T08:27:20;12.00;99.90
13346;DHT22;6742;48.036;15.780;2022-10-13T08:29:48;12.00;99.90
13346;DHT22;6742;48.036;15.780;2022-10-13T08:32:15;12.00;99.90
13346;DHT22;6742;48.036;15.780;2022-10-13T08:34:42;12.00;99.90
13346;DHT22;6742;48.036;15.780;2022-10-13T08:37:17;12.10;99.90
13346;DHT22;6742;48.036;15.780;2022-10-13T08:39:46;12.10;99.90
13346;DHT22;6742;48.036;15.780;2022-10-13T08:42:15;12.10;99.90
13346;DHT22;6742;48.036;15.780;2022-10-13T08:44:45;12.10;99.90
13346;DHT22;6742;48.036;15.780;2022-10-13T08:47:34;12.10;99.90
13346;DHT22;6742;48.036;15.780;2022-10-13T08:50:10;12.20;99.90
13346;DHT22;6742;48.036;15.780;2022-10-13T08:52:46;12.30;99.90
13346;DHT22;6742;48.036;15.780;2022-10-13T08:55:20;12.30;99.90
13346;DHT22;6742;48.036;15.780;2022-10-13T08:57:48;12.40;99.90
13346;DHT22;6742;48.036;15.780;2022-10-13T09:00:16;12.40;99.90
13346;DHT22;6742;48.036;15.780;2022-10-13T09:02:44;12.40;99.90
13346;DHT22;6742;48.036;15.780;2022-10-13T09:05:14;12.40;99.90
13346;DHT22;6742;48.036;15.780;2022-10-13T09:07:45;12.30;99.90
13346;DHT22;6742;48.036;15.780;2022-10-13T09:10:13;12.40;99.90
13346;DHT22;6742;48.036;15.780;2022-10-13T09:12:41;12.50;99.90
13346;DHT22;6742;48.036;15.780;2022-10-13T09:15:09;12.50;99.90
13346;DHT22;6742;48.036;15.780;2022-10-13T09:17:38;12.60;99.90
13346;DHT22;6742;48.036;15.780;2022-10-13T09:20:09;12.60;99.90
13346;DHT22;6742;48.036;15.780;2022-10-13T09:22:41;12.70;99.90
13346;DHT22;6742;48.036;15.780;2022-10-13T09:25:21;12.70;99.90
13346;DHT22;6742;48.036;15.780;2022-10-13T09:27:50;12.80;99.90
13346;DHT22;6742;48.036;15.780;2022-10-13T09:30:26;12.90;99.90
13346;DHT22;6742;48.036;15.780;2022-10-13T09:33:21;12.80;99.90
13346;DHT22;6742;48.036;15.780;2022-10-13T09:36:05;12.90;99.90
13346;DHT22;6742;48.036;15.780;2022-10-13T09:38:33;13.00;99.90
13346;DHT22;6742;48.036;15.780;2022-10-13T09:41:04;13.00;99.90
13346;DHT22;6742;48.036;15.780;2022-10-13T09:43:33;13.00;99.90
13346;DHT22;6742;48.036;15.780;2022-10-13T09:46:02;13.10;99.90
13346;DHT22;6742;48.036;15.780;2022-10-13T09:48:34;13.10;99.90
13346;DHT22;6742;48.036;15.780;2022-10-13T09:51:02;13.10;99.90
13346;DHT22;6742;48.036;15.780;2022-10-13T09:53:31;13.20;99.90
13346;DHT22;6742;48.036;15.780;2022-10-13T09:56:19;13.30;99.90
13346;DHT22;6742;48.036;15.780;2022-10-13T09:58:51;13.30;99.90
13346;DHT22;6742;48.036;15.780;2022-10-13T10:01:23;13.30;99.90
13346;DHT22;6742;48.036;15.780;2022-10-13T10:03:56;13.30;99.90
13346;DHT22;6742;48.036;15.780;2022-10-13T10:06:23;13.30;99.90
13346;DHT22;6742;48.036;15.780;2022-10-13T10:08:54;13.30;99.90
13346;DHT22;6742;48.036;15.780;2022-10-13T10:11:28;13.40;99.90
13346;DHT22;6742;48.036;15.780;2022-10-13T10:13:59;13.40;99.90
13346;DHT22;6742;48.036;15.780;2022-10-13T10:16:32;13.40;99.90
13346;DHT22;6742;48.036;15.780;2022-10-13T10:19:06;13.40;99.90
13346;DHT22;6742;48.036;15.780;2022-10-13T10:21:39;13.40;99.90
13346;DHT22;6742;48.036;15.780;2022-10-13T10:24:19;13.50;99.90
13346;DHT22;6742;48.036;15.780;2022-10-13T10:26:55;13.60;99.90
13346;DHT22;6742;48.036;15.780;2022-10-13T10:29:28;13.70;99.90
13346;DHT22;6742;48.036;15.780;2022-10-13T10:32:20;13.70;99.90
13346;DHT22;6742;48.036;15.780;2022-10-13T10:34:52;13.70;99.90
13346;DHT22;6742;48.036;15.780;2022-10-13T10:37:34;13.70;99.90
13346;DHT22;6742;48.036;15.780;2022-10-13T10:40:12;13.70;99.90
13346;DHT22;6742;48.036;15.780;2022-10-13T10:42:56;13.70;99.90
13346;DHT22;6742;48.036;15.780;2022-10-13T10:45:30;13.70;99.90
13346;DHT22;6742;48.036;15.780;2022-10-13T10:48:02;13.70;99.90
13346;DHT22;6742;48.036;15.780;2022-10-13T10:50:30;13.70;99.90
13346;DHT22;6742;48.036;15.780;2022-10-13T10:53:01;13.70;99.90
13346;DHT22;6742;48.036;15.780;2022-10-13T10:55:32;13.70;99.90
13346;DHT22;6742;48.036;15.780;2022-10-13T10:58:14;13.80;99.90
13346;DHT22;6742;48.036;15.780;2022-10-13T11:00:52;13.70;99.90
13346;DHT22;6742;48.036;15.780;2022-10-13T11:03:34;13.80;99.90
13346;DHT22;6742;48.036;15.780;2022-10-13T11:06:21;13.80;99.90
13346;DHT22;6742;48.036;15.780;2022-10-13T11:08:49;13.90;99.90
13346;DHT22;6742;48.036;15.780;2022-10-13T11:11:37;13.90;99.90
13346;DHT22;6742;48.036;15.780;2022-10-13T11:14:27;13.90;99.90
13346;DHT22;6742;48.036;15.780;2022-10-13T11:19:44;13.90;99.90
13346;DHT22;6742;48.036;15.780;2022-10-13T11:22:19;13.90;99.90
13346;DHT22;6742;48.036;15.780;2022-10-13T11:24:57;13.90;99.90
13346;DHT22;6742;48.036;15.780;2022-10-13T11:27:40;13.90;99.90
13346;DHT22;6742;48.036;15.780;2022-10-13T11:30:41;13.90;99.90
13346;DHT22;6742;48.036;15.780;2022-10-13T11:33:31;13.90;99.90
13346;DHT22;6742;48.036;15.780;2022-10-13T11:36:31;13.80;99.90
13346;DHT22;6742;48.036;15.780;2022-10-13T11:39:13;13.80;99.90
13346;DHT22;6742;48.036;15.780;2022-10-13T11:41:49;13.80;99.90
13346;DHT22;6742;48.036;15.780;2022-10-13T11:44:23;13.80;99.90
13346;DHT22;6742;48.036;15.780;2022-10-13T11:46:59;13.70;99.90
13346;DHT22;6742;48.036;15.780;2022-10-13T11:49:44;13.70;99.90
13346;DHT22;6742;48.036;15.780;2022-10-13T11:52:25;13.70;99.90
13346;DHT22;6742;48.036;15.780;2022-10-13T11:54:56;13.70;99.90
13346;DHT22;6742;48.036;15.780;2022-10-13T11:57:27;13.80;99.90
13346;DHT22;6742;48.036;15.780;2022-10-13T11:59:57;13.80;99.90
13346;DHT22;6742;48.036;15.780;2022-10-13T12:02:27;13.90;99.90
13346;DHT22;6742;48.036;15.780;2022-10-13T12:05:04;14.00;99.90
13346;DHT22;6742;48.036;15.780;2022-10-13T12:07:34;14.00;99.90
13346;DHT22;6742;48.036;15.780;2022-10-13T12:10:05;14.00;99.90
13346;DHT22;6742;48.036;15.780;2022-10-13T12:12:33;14.00;99.90
13346;DHT22;6742;48.036;15.780;2022-10-13T12:15:00;14.10;99.90
13346;DHT22;6742;48.036;15.780;2022-10-13T12:17:30;14.10;99.90
13346;DHT22;6742;48.036;15.780;2022-10-13T12:20:00;14.20;99.90
13346;DHT22;6742;48.036;15.780;2022-10-13T12:22:29;14.30;99.90
13346;DHT22;6742;48.036;15.780;2022-10-13T12:24:58;14.30;99.90
13346;DHT22;6742;48.036;15.780;2022-10-13T12:27:26;14.30;99.90
13346;DHT22;6742;48.036;15.780;2022-10-13T12:29:53;14.40;99.90
13346;DHT22;6742;48.036;15.780;2022-10-13T12:32:22;14.50;99.90
13346;DHT22;6742;48.036;15.780;2022-10-13T12:34:51;14.50;99.90
13346;DHT22;6742;48.036;15.780;2022-10-13T12:37:26;14.40;99.90
13346;DHT22;6742;48.036;15.780;2022-10-13T12:39:55;14.50;99.90
13346;DHT22;6742;48.036;15.780;2022-10-13T12:42:27;14.50;99.90
13346;DHT22;6742;48.036;15.780;2022-10-13T12:44:54;14.60;99.90
13346;DHT22;6742;48.036;15.780;2022-10-13T12:47:38;14.60;99.90
13346;DHT22;6742;48.036;15.780;2022-10-13T12:50:35;14.60;99.90
13346;DHT22;6742;48.036;15.780;2022-10-13T12:53:15;14.60;99.90
13346;DHT22;6742;48.036;15.780;2022-10-13T12:56:00;14.60;99.90
13346;DHT22;6742;48.036;15.780;2022-10-13T12:58:30;14.60;99.90
13346;DHT22;6742;48.036;15.780;2022-10-13T13:01:05;14.60;99.90
13346;DHT22;6742;48.036;15.780;2022-10-13T13:03:34;14.60;99.90
13346;DHT22;6742;48.036;15.780;2022-10-13T13:06:31;14.70;99.90
13346;DHT22;6742;48.036;15.780;2022-10-13T13:09:23;14.80;99.90
13346;DHT22;6742;48.036;15.780;2022-10-13T13:12:22;14.80;99.90
13346;DHT22;6742;48.036;15.780;2022-10-13T13:14:52;14.80;99.90
13346;DHT22;6742;48.036;15.780;2022-10-13T13:17:31;14.80;99.90
13346;DHT22;6742;48.036;15.780;2022-10-13T13:19:58;14.90;99.90
13346;DHT22;6742;48.036;15.780;2022-10-13T13:22:26;15.00;99.90
13346;DHT22;6742;48.036;15.780;2022-10-13T13:24:59;15.00;99.90
13346;DHT22;6742;48.036;15.780;2022-10-13T13:27:27;14.90;99.90
13346;DHT22;6742;48.036;15.780;2022-10-13T13:29:57;14.90;99.90
13346;DHT22;6742;48.036;15.780;2022-10-13T13:32:26;14.90;99.90
13346;DHT22;6742;48.036;15.780;2022-10-13T13:34:53;14.90;99.90
13346;DHT22;6742;48.036;15.780;2022-10-13T13:37:28;14.90;99.90
13346;DHT22;6742;48.036;15.780;2022-10-13T13:39:56;14.90;99.90
13346;DHT22;6742;48.036;15.780;2022-10-13T13:42:23;14.90;99.90
13346;DHT22;6742;48.036;15.780;2022-10-13T13:44:50;14.90;99.90
13346;DHT22;6742;48.036;15.780;2022-10-13T13:47:19;14.90;99.90
13346;DHT22;6742;48.036;15.780;2022-10-13T13:49:47;14.90;99.90
13346;DHT22;6742;48.036;15.780;2022-10-13T13:52:15;14.80;99.90
13346;DHT22;6742;48.036;15.780;2022-10-13T13:54:43;14.90;99.90
13346;DHT22;6742;48.036;15.780;2022-10-13T13:57:12;14.90;99.90
13346;DHT22;6742;48.036;15.780;2022-10-13T13:59:40;14.80;99.90
13346;DHT22;6742;48.036;15.780;2022-10-13T14:02:11;14.70;99.90
13346;DHT22;6742;48.036;15.780;2022-10-13T14:04:39;14.60;99.90
13346;DHT22;6742;48.036;15.780;2022-10-13T14:07:06;14.60;99.90
13346;DHT22;6742;48.036;15.780;2022-10-13T14:09:36;14.50;99.90
13346;DHT22;6742;48.036;15.780;2022-10-13T14:12:05;14.60;99.90
13346;DHT22;6742;48.036;15.780;2022-10-13T14:14:32;14.50;99.90
13346;DHT22;6742;48.036;15.780;2022-10-13T14:17:00;14.50;99.90
13346;DHT22;6742;48.036;15.780;2022-10-13T14:19:28;14.50;99.90
13346;DHT22;6742;48.036;15.780;2022-10-13T14:21:55;14.50;99.90
13346;DHT22;6742;48.036;15.780;2022-10-13T14:24:25;14.40;99.90
13346;DHT22;6742;48.036;15.780;2022-10-13T14:26:52;14.40;99.90
13346;DHT22;6742;48.036;15.780;2022-10-13T14:29:21;14.30;99.90
13346;DHT22;6742;48.036;15.780;2022-10-13T14:31:48;14.30;99.90
13346;DHT22;6742;48.036;15.780;2022-10-13T14:34:15;14.30;99.90
13346;DHT22;6742;48.036;15.780;2022-10-13T14:36:42;14.30;99.90
13346;DHT22;6742;48.036;15.780;2022-10-13T14:39:08;14.20;99.90
13346;DHT22;6742;48.036;15.780;2022-10-13T14:41:35;14.20;99.90
13346;DHT22;6742;48.036;15.780;2022-10-13T14:44:03;14.20;99.90
13346;DHT22;6742;48.036;15.780;2022-10-13T14:46:32;14.20;99.90
13346;DHT22;6742;48.036;15.780;2022-10-13T14:48:59;14.20;99.90
13346;DHT22;6742;48.036;15.780;2022-10-13T14:51:26;14.10;99.90
13346;DHT22;6742;48.036;15.780;2022-10-13T14:53:53;14.10;99.90
13346;DHT22;6742;48.036;15.780;2022-10-13T14:56:21;14.00;99.90
13346;DHT22;6742;48.036;15.780;2022-10-13T14:58:50;14.00;99.90
13346;DHT22;6742;48.036;15.780;2022-10-13T15:01:21;14.00;99.90
13346;DHT22;6742;48.036;15.780;2022-10-13T15:03:49;13.90;99.90
13346;DHT22;6742;48.036;15.780;2022-10-13T15:06:18;14.00;99.90
13346;DHT22;6742;48.036;15.780;2022-10-13T15:08:46;13.90;99.90
13346;DHT22;6742;48.036;15.780;2022-10-13T15:11:14;13.90;99.90
13346;DHT22;6742;48.036;15.780;2022-10-13T15:13:41;13.90;99.90
13346;DHT22;6742;48.036;15.780;2022-10-13T15:16:15;13.80;99.90
13346;DHT22;6742;48.036;15.780;2022-10-13T15:18:42;13.80;99.90
13346;DHT22;6742;48.036;15.780;2022-10-13T15:21:11;13.80;99.90
13346;DHT22;6742;48.036;15.780;2022-10-13T15:23:41;13.80;99.90
13346;DHT22;6742;48.036;15.780;2022-10-13T15:26:10;13.80;99.90
13346;DHT22;6742;48.036;15.780;2022-10-13T15:28:40;13.70;99.90
13346;DHT22;6742;48.036;15.780;2022-10-13T15:31:07;13.70;99.90
13346;DHT22;6742;48.036;15.780;2022-10-13T15:33:34;13.70;99.90
13346;DHT22;6742;48.036;15.780;2022-10-13T15:36:01;13.60;99.90
13346;DHT22;6742;48.036;15.780;2022-10-13T15:38:30;13.60;99.90
13346;DHT22;6742;48.036;15.780;2022-10-13T15:41:04;13.50;99.90
13346;DHT22;6742;48.036;15.780;2022-10-13T15:43:31;13.70;99.90
13346;DHT22;6742;48.036;15.780;2022-10-13T15:46:01;13.60;99.90
13346;DHT22;6742;48.036;15.780;2022-10-13T15:48:29;13.70;99.90
13346;DHT22;6742;48.036;15.780;2022-10-13T15:50:56;13.80;99.90
13346;DHT22;6742;48.036;15.780;2022-10-13T15:53:23;13.70;99.90
13346;DHT22;6742;48.036;15.780;2022-10-13T15:55:51;13.80;99.90
13346;DHT22;6742;48.036;15.780;2022-10-13T15:58:19;13.80;99.90